sensor_id;sensor_type;location;lat;lon;timestamp;pressure;altitude;pressure_sealevel;temperature;humidity
35291;BME280;21411;50.024;19.220;2022-12-10T00:01:41;97585.67;;;0.56;100.00
35291;BME280;21411;50.024;19.220;2022-12-10T00:04:07;97585.35;;;0.55;100.00
35291;BME280;21411;50.024;19.220;2022-12-10T00:06:35;97590.62;;;0.55;100.00
35291;BME280;21411;50.024;19.220;2022-12-10T00:09:03;97589.88;;;0.56;100.00
35291;BME280;21411;50.024;19.220;2022-12-10T00:11:29;97586.02;;;0.56;100.00
35291;BME280;21411;50.024;19.220;2022-12-10T00:13:56;97586.05;;;0.55;100.00
35291;BME280;21411;50.024;19.220;2022-12-10T00:16:25;97586.05;;;0.55;100.00
35291;BME280;21411;50.024;19.220;2022-12-10T00:18:52;97590.21;;;0.56;100.00
35291;BME280;21411;50.024;19.220;2022-12-10T00:21:21;97582.29;;;0.57;100.00
35291;BME280;21411;50.024;19.220;2022-12-10T00:23:47;97581.39;;;0.58;100.00
35291;BME280;21411;50.024;19.220;2022-12-10T00:26:17;97582.77;;;0.58;100.00
35291;BME280;21411;50.024;19.220;2022-12-10T00:28:45;97584.83;;;0.59;100.00
35291;BME280;21411;50.024;19.220;2022-12-10T00:31:18;97582.86;;;0.60;100.00
35291;BME280;21411;50.024;19.220;2022-12-10T00:33:46;97579.14;;;0.61;100.00
35291;BME280;21411;50.024;19.220;2022-12-10T00:38:40;97579.75;;;0.62;100.00
35291;BME280;21411;50.024;19.220;2022-12-10T00:41:07;97586.73;;;0.63;100.00
35291;BME280;21411;50.024;19.220;2022-12-10T00:43:34;97587.08;;;0.63;100.00
35291;BME280;21411;50.024;19.220;2022-12-10T00:46:00;97586.20;;;0.63;100.00
35291;BME280;21411;50.024;19.220;2022-12-10T00:48:27;97586.39;;;0.62;100.00
35291;BME280;21411;50.024;19.220;2022-12-10T00:51:07;97590.44;;;0.62;100.00
35291;BME280;21411;50.024;19.220;2022-12-10T00:53:34;97597.80;;;0.62;100.00
35291;BME280;21411;50.024;19.220;2022-12-10T00:56:01;97599.70;;;0.62;100.00
35291;BME280;21411;50.024;19.220;2022-12-10T00:58:29;97606.17;;;0.62;100.00
35291;BME280;21411;50.024;19.220;2022-12-10T01:01:28;97610.17;;;0.62;100.00
35291;BME280;21411;50.024;19.220;2022-12-10T01:03:55;97603.41;;;0.61;100.00
35291;BME280;21411;50.024;19.220;2022-12-10T01:06:28;97603.95;;;0.61;100.00
35291;BME280;21411;50.024;19.220;2022-12-10T01:08:56;97605.65;;;0.62;100.00
35291;BME280;21411;50.024;19.220;2022-12-10T01:11:30;97606.70;;;0.61;100.00
35291;BME280;21411;50.024;19.220;2022-12-10T01:13:57;97612.97;;;0.62;100.00
35291;BME280;21411;50.024;19.220;2022-12-10T01:16:24;97614.63;;;0.64;100.00
35291;BME280;21411;50.024;19.220;2022-12-10T01:18:54;97612.17;;;0.64;100.00
35291;BME280;21411;50.024;19.220;2022-12-10T01:21:21;97607.96;;;0.65;100.00
35291;BME280;21411;50.024;19.220;2022-12-10T01:23:48;97610.20;;;0.65;100.00
35291;BME280;21411;50.024;19.220;2022-12-10T01:26:20;97615.11;;;0.65;100.00
35291;BME280;21411;50.024;19.220;2022-12-10T01:28:47;97612.81;;;0.66;100.00
35291;BME280;21411;50.024;19.220;2022-12-10T01:31:22;97618.07;;;0.65;100.00
35291;BME280;21411;50.024;19.220;2022-12-10T01:33:48;97621.38;;;0.65;100.00
35291;BME280;21411;50.024;19.220;2022-12-10T01:36:25;97627.68;;;0.65;100.00
35291;BME280;21411;50.024;19.220;2022-12-10T01:38:52;97637.79;;;0.66;100.00
35291;BME280;21411;50.024;19.220;2022-12-10T01:41:24;97639.88;;;0.66;100.00
35291;BME280;21411;50.024;19.220;2022-12-10T01:43:59;97639.98;;;0.68;100.00
35291;BME280;21411;50.024;19.220;2022-12-10T01:46:30;97634.17;;;0.69;100.00
35291;BME280;21411;50.024;19.220;2022-12-10T01:48:59;97636.69;;;0.71;100.00
35291;BME280;21411;50.024;19.220;2022-12-10T01:51:27;97635.10;;;0.71;100.00
35291;BME280;21411;50.024;19.220;2022-12-10T01:53:54;97633.70;;;0.71;100.00
35291;BME280;21411;50.024;19.220;2022-12-10T01:56:22;97633.35;;;0.71;100.00
35291;BME280;21411;50.024;19.220;2022-12-10T01:58:50;97632.46;;;0.71;100.00
35291;BME280;21411;50.024;19.220;2022-12-10T02:01:37;97630.16;;;0.72;100.00
35291;BME280;21411;50.024;19.220;2022-12-10T02:07:01;97632.36;;;0.73;100.00
35291;BME280;21411;50.024;19.220;2022-12-10T02:09:57;97628.88;;;0.73;100.00
35291;BME280;21411;50.024;19.220;2022-12-10T02:12:33;97626.42;;;0.73;100.00
35291;BME280;21411;50.024;19.220;2022-12-10T02:15:06;97628.46;;;0.74;100.00
35291;BME280;21411;50.024;19.220;2022-12-10T02:17:43;97632.13;;;0.75;100.00
35291;BME280;21411;50.024;19.220;2022-12-10T02:20:19;97637.41;;;0.74;100.00
35291;BME280;21411;50.024;19.220;2022-12-10T02:23:13;97630.94;;;0.74;100.00
35291;BME280;21411;50.024;19.220;2022-12-10T02:30:53;97644.23;;;0.74;100.00
35291;BME280;21411;50.024;19.220;2022-12-10T02:33:20;97645.65;;;0.73;100.00
35291;BME280;21411;50.024;19.220;2022-12-10T02:35:50;97645.14;;;0.73;100.00
35291;BME280;21411;50.024;19.220;2022-12-10T02:38:25;97649.33;;;0.73;100.00
35291;BME280;21411;50.024;19.220;2022-12-10T02:40:57;97653.76;;;0.72;100.00
35291;BME280;21411;50.024;19.220;2022-12-10T02:43:25;97659.49;;;0.72;100.00
35291;BME280;21411;50.024;19.220;2022-12-10T02:45:53;97666.98;;;0.73;100.00
35291;BME280;21411;50.024;19.220;2022-12-10T02:48:20;97669.98;;;0.73;100.00
35291;BME280;21411;50.024;19.220;2022-12-10T02:50:47;97669.80;;;0.73;100.00
35291;BME280;21411;50.024;19.220;2022-12-10T02:53:13;97662.66;;;0.72;100.00
35291;BME280;21411;50.024;19.220;2022-12-10T02:58:54;97643.28;;;0.72;100.00
35291;BME280;21411;50.024;19.220;2022-12-10T03:04:01;97644.89;;;0.68;100.00
35291;BME280;21411;50.024;19.220;2022-12-10T03:06:36;97645.77;;;0.67;100.00
35291;BME280;21411;50.024;19.220;2022-12-10T03:09:08;97643.02;;;0.66;100.00
35291;BME280;21411;50.024;19.220;2022-12-10T03:11:35;97651.09;;;0.65;100.00
35291;BME280;21411;50.024;19.220;2022-12-10T03:14:13;97652.48;;;0.65;100.00
35291;BME280;21411;50.024;19.220;2022-12-10T03:16:54;97659.64;;;0.66;100.00
35291;BME280;21411;50.024;19.220;2022-12-10T03:19:31;97663.12;;;0.67;100.00
35291;BME280;21411;50.024;19.220;2022-12-10T03:22:01;97666.20;;;0.68;100.00
35291;BME280;21411;50.024;19.220;2022-12-10T03:24:29;97667.07;;;0.68;100.00
35291;BME280;21411;50.024;19.220;2022-12-10T03:26:57;97670.05;;;0.68;100.00
35291;BME280;21411;50.024;19.220;2022-12-10T03:29:27;97674.60;;;0.67;100.00
35291;BME280;21411;50.024;19.220;2022-12-10T03:31:54;97679.83;;;0.68;100.00
35291;BME280;21411;50.024;19.220;2022-12-10T03:34:21;97677.02;;;0.68;100.00
35291;BME280;21411;50.024;19.220;2022-12-10T03:36:48;97677.96;;;0.67;100.00
35291;BME280;21411;50.024;19.220;2022-12-10T03:39:15;97683.34;;;0.67;100.00
35291;BME280;21411;50.024;19.220;2022-12-10T03:41:42;97685.80;;;0.67;100.00
35291;BME280;21411;50.024;19.220;2022-12-10T03:44:08;97688.98;;;0.67;100.00
35291;BME280;21411;50.024;19.220;2022-12-10T03:46:33;97692.13;;;0.66;100.00
35291;BME280;21411;50.024;19.220;2022-12-10T03:49:03;97691.11;;;0.66;100.00
35291;BME280;21411;50.024;19.220;2022-12-10T03:51:29;97685.75;;;0.64;100.00
35291;BME280;21411;50.024;19.220;2022-12-10T03:53:55;97682.27;;;0.64;100.00
35291;BME280;21411;50.024;19.220;2022-12-10T03:56:23;97681.89;;;0.65;100.00
35291;BME280;21411;50.024;19.220;2022-12-10T03:58:49;97686.33;;;0.63;100.00
35291;BME280;21411;50.024;19.220;2022-12-10T04:01:16;97696.54;;;0.62;100.00
35291;BME280;21411;50.024;19.220;2022-12-10T04:03:43;97699.87;;;0.62;100.00
35291;BME280;21411;50.024;19.220;2022-12-10T04:06:15;97704.43;;;0.61;100.00
35291;BME280;21411;50.024;19.220;2022-12-10T04:08:41;97708.27;;;0.61;100.00
35291;BME280;21411;50.024;19.220;2022-12-10T04:11:09;97712.49;;;0.61;100.00
35291;BME280;21411;50.024;19.220;2022-12-10T04:13:37;97714.23;;;0.61;100.00
35291;BME280;21411;50.024;19.220;2022-12-10T04:16:23;97709.73;;;0.60;100.00
35291;BME280;21411;50.024;19.220;2022-12-10T04:19:19;97710.14;;;0.59;100.00
35291;BME280;21411;50.024;19.220;2022-12-10T04:21:46;97715.73;;;0.59;100.00
35291;BME280;21411;50.024;19.220;2022-12-10T04:24:35;97706.85;;;0.58;100.00
35291;BME280;21411;50.024;19.220;2022-12-10T04:27:27;97710.02;;;0.57;100.00
35291;BME280;21411;50.024;19.220;2022-12-10T04:29:55;97714.19;;;0.58;100.00
35291;BME280;21411;50.024;19.220;2022-12-10T04:32:23;97725.42;;;0.57;100.00
35291;BME280;21411;50.024;19.220;2022-12-10T04:34:49;97738.76;;;0.56;100.00
35291;BME280;21411;50.024;19.220;2022-12-10T04:37:16;97745.42;;;0.56;100.00
35291;BME280;21411;50.024;19.220;2022-12-10T04:39:44;97743.55;;;0.54;100.00
35291;BME280;21411;50.024;19.220;2022-12-10T04:42:10;97739.96;;;0.53;100.00
35291;BME280;21411;50.024;19.220;2022-12-10T04:44:37;97735.66;;;0.51;100.00
35291;BME280;21411;50.024;19.220;2022-12-10T04:47:05;97727.52;;;0.53;100.00
35291;BME280;21411;50.024;19.220;2022-12-10T04:49:31;97726.58;;;0.55;100.00
35291;BME280;21411;50.024;19.220;2022-12-10T04:51:58;97727.58;;;0.56;100.00
35291;BME280;21411;50.024;19.220;2022-12-10T04:54:26;97732.63;;;0.56;100.00
35291;BME280;21411;50.024;19.220;2022-12-10T04:56:52;97743.59;;;0.57;100.00
35291;BME280;21411;50.024;19.220;2022-12-10T04:59:18;97751.08;;;0.58;100.00
35291;BME280;21411;50.024;19.220;2022-12-10T05:01:44;97754.26;;;0.57;100.00
35291;BME280;21411;50.024;19.220;2022-12-10T05:04:12;97758.42;;;0.57;100.00
35291;BME280;21411;50.024;19.220;2022-12-10T05:06:40;97762.38;;;0.59;100.00
35291;BME280;21411;50.024;19.220;2022-12-10T05:09:06;97768.79;;;0.60;100.00
35291;BME280;21411;50.024;19.220;2022-12-10T05:11:33;97773.45;;;0.62;100.00
35291;BME280;21411;50.024;19.220;2022-12-10T05:14:05;97781.95;;;0.63;100.00
35291;BME280;21411;50.024;19.220;2022-12-10T05:16:33;97785.48;;;0.62;100.00
35291;BME280;21411;50.024;19.220;2022-12-10T05:18:59;97787.76;;;0.62;100.00
35291;BME280;21411;50.024;19.220;2022-12-10T05:21:27;97783.58;;;0.62;100.00
35291;BME280;21411;50.024;19.220;2022-12-10T05:24:13;97787.48;;;0.60;100.00
35291;BME280;21411;50.024;19.220;2022-12-10T05:26:39;97784.90;;;0.59;100.00
35291;BME280;21411;50.024;19.220;2022-12-10T05:29:06;97781.44;;;0.59;100.00
35291;BME280;21411;50.024;19.220;2022-12-10T05:31:32;97777.90;;;0.60;100.00
35291;BME280;21411;50.024;19.220;2022-12-10T05:33:58;97769.34;;;0.60;100.00
35291;BME280;21411;50.024;19.220;2022-12-10T05:36:27;97768.85;;;0.59;100.00
35291;BME280;21411;50.024;19.220;2022-12-10T05:38:56;97766.95;;;0.58;100.00
35291;BME280;21411;50.024;19.220;2022-12-10T05:41:24;97757.89;;;0.58;100.00
35291;BME280;21411;50.024;19.220;2022-12-10T05:43:53;97753.49;;;0.59;100.00
35291;BME280;21411;50.024;19.220;2022-12-10T05:46:22;97747.49;;;0.59;100.00
35291;BME280;21411;50.024;19.220;2022-12-10T05:48:50;97741.69;;;0.60;100.00
35291;BME280;21411;50.024;19.220;2022-12-10T05:51:20;97746.62;;;0.60;100.00
35291;BME280;21411;50.024;19.220;2022-12-10T05:53:48;97743.71;;;0.58;100.00
35291;BME280;21411;50.024;19.220;2022-12-10T05:56:19;97748.66;;;0.57;100.00
35291;BME280;21411;50.024;19.220;2022-12-10T05:58:47;97752.51;;;0.57;100.00
35291;BME280;21411;50.024;19.220;2022-12-10T06:01:19;97750.45;;;0.56;100.00
35291;BME280;21411;50.024;19.220;2022-12-10T06:03:45;97741.73;;;0.56;100.00
35291;BME280;21411;50.024;19.220;2022-12-10T06:06:13;97733.36;;;0.55;100.00
35291;BME280;21411;50.024;19.220;2022-12-10T06:08:40;97724.80;;;0.56;100.00
35291;BME280;21411;50.024;19.220;2022-12-10T06:11:09;97724.27;;;0.55;100.00
35291;BME280;21411;50.024;19.220;2022-12-10T06:13:37;97738.45;;;0.55;100.00
35291;BME280;21411;50.024;19.220;2022-12-10T06:16:06;97748.77;;;0.55;100.00
35291;BME280;21411;50.024;19.220;2022-12-10T06:18:32;97750.52;;;0.55;100.00
35291;BME280;21411;50.024;19.220;2022-12-10T06:20:58;97757.49;;;0.55;100.00
35291;BME280;21411;50.024;19.220;2022-12-10T06:23:24;97766.57;;;0.55;100.00
35291;BME280;21411;50.024;19.220;2022-12-10T06:25:50;97777.48;;;0.57;100.00
35291;BME280;21411;50.024;19.220;2022-12-10T06:28:16;97785.96;;;0.59;100.00
35291;BME280;21411;50.024;19.220;2022-12-10T06:30:42;97793.06;;;0.61;100.00
35291;BME280;21411;50.024;19.220;2022-12-10T06:33:08;97797.02;;;0.62;100.00
35291;BME280;21411;50.024;19.220;2022-12-10T06:35:34;97802.65;;;0.65;100.00
35291;BME280;21411;50.024;19.220;2022-12-10T06:38:00;97806.39;;;0.68;100.00
35291;BME280;21411;50.024;19.220;2022-12-10T06:40:26;97811.77;;;0.69;100.00
35291;BME280;21411;50.024;19.220;2022-12-10T06:42:52;97818.23;;;0.68;100.00
35291;BME280;21411;50.024;19.220;2022-12-10T06:45:18;97827.47;;;0.69;100.00
35291;BME280;21411;50.024;19.220;2022-12-10T06:47:44;97837.38;;;0.70;100.00
35291;BME280;21411;50.024;19.220;2022-12-10T06:50:11;97845.39;;;0.71;100.00
35291;BME280;21411;50.024;19.220;2022-12-10T06:52:38;97851.09;;;0.73;100.00
35291;BME280;21411;50.024;19.220;2022-12-10T06:55:04;97858.55;;;0.74;100.00
35291;BME280;21411;50.024;19.220;2022-12-10T06:57:30;97865.73;;;0.73;100.00
35291;BME280;21411;50.024;19.220;2022-12-10T06:59:56;97867.95;;;0.74;100.00
35291;BME280;21411;50.024;19.220;2022-12-10T07:02:22;97859.75;;;0.74;100.00
35291;BME280;21411;50.024;19.220;2022-12-10T07:04:48;97853.38;;;0.76;100.00
35291;BME280;21411;50.024;19.220;2022-12-10T07:07:14;97848.23;;;0.77;100.00
35291;BME280;21411;50.024;19.220;2022-12-10T07:09:40;97836.66;;;0.78;100.00
35291;BME280;21411;50.024;19.220;2022-12-10T07:12:06;97835.03;;;0.79;100.00
35291;BME280;21411;50.024;19.220;2022-12-10T07:14:32;97836.89;;;0.80;100.00
35291;BME280;21411;50.024;19.220;2022-12-10T07:16:58;97841.84;;;0.83;100.00
35291;BME280;21411;50.024;19.220;2022-12-10T07:19:24;97836.80;;;0.86;100.00
35291;BME280;21411;50.024;19.220;2022-12-10T07:21:50;97837.27;;;0.88;100.00
35291;BME280;21411;50.024;19.220;2022-12-10T07:24:18;97840.23;;;0.92;100.00
35291;BME280;21411;50.024;19.220;2022-12-10T07:26:46;97841.86;;;0.94;100.00
35291;BME280;21411;50.024;19.220;2022-12-10T07:29:17;97844.49;;;0.98;100.00
35291;BME280;21411;50.024;19.220;2022-12-10T07:31:44;97845.56;;;1.01;100.00
35291;BME280;21411;50.024;19.220;2022-12-10T07:34:11;97843.02;;;1.03;100.00
35291;BME280;21411;50.024;19.220;2022-12-10T07:36:38;97838.64;;;1.03;100.00
35291;BME280;21411;50.024;19.220;2022-12-10T07:39:06;97842.65;;;1.04;100.00
35291;BME280;21411;50.024;19.220;2022-12-10T07:41:32;97849.54;;;1.06;100.00
35291;BME280;21411;50.024;19.220;2022-12-10T07:44:02;97851.34;;;1.08;100.00
35291;BME280;21411;50.024;19.220;2022-12-10T07:46:31;97852.27;;;1.11;100.00
35291;BME280;21411;50.024;19.220;2022-12-10T07:49:00;97856.33;;;1.14;100.00
35291;BME280;21411;50.024;19.220;2022-12-10T07:51:27;97855.35;;;1.16;100.00
35291;BME280;21411;50.024;19.220;2022-12-10T07:53:54;97855.63;;;1.18;100.00
35291;BME280;21411;50.024;19.220;2022-12-10T07:56:22;97857.17;;;1.18;100.00
35291;BME280;21411;50.024;19.220;2022-12-10T07:58:51;97858.83;;;1.21;100.00
35291;BME280;21411;50.024;19.220;2022-12-10T08:01:21;97854.58;;;1.21;100.00
35291;BME280;21411;50.024;19.220;2022-12-10T08:03:48;97851.13;;;1.24;100.00
35291;BME280;21411;50.024;19.220;2022-12-10T08:06:18;97848.30;;;1.28;100.00
35291;BME280;21411;50.024;19.220;2022-12-10T08:08:44;97851.00;;;1.34;100.00
35291;BME280;21411;50.024;19.220;2022-12-10T08:11:12;97850.16;;;1.37;100.00
35291;BME280;21411;50.024;19.220;2022-12-10T08:13:39;97848.98;;;1.40;100.00
35291;BME280;21411;50.024;19.220;2022-12-10T08:16:07;97851.00;;;1.42;100.00
35291;BME280;21411;50.024;19.220;2022-12-10T08:18:34;97856.27;;;1.41;100.00
35291;BME280;21411;50.024;19.220;2022-12-10T08:21:05;97860.65;;;1.41;100.00
35291;BME280;21411;50.024;19.220;2022-12-10T08:23:31;97862.40;;;1.44;100.00
35291;BME280;21411;50.024;19.220;2022-12-10T08:25:57;97865.40;;;1.51;100.00
35291;BME280;21411;50.024;19.220;2022-12-10T08:28:23;97866.27;;;1.59;100.00
35291;BME280;21411;50.024;19.220;2022-12-10T08:30:49;97866.72;;;1.64;100.00
35291;BME280;21411;50.024;19.220;2022-12-10T08:33:15;97869.52;;;1.67;100.00
35291;BME280;21411;50.024;19.220;2022-12-10T08:35:41;97872.17;;;1.70;100.00
35291;BME280;21411;50.024;19.220;2022-12-10T08:38:07;97867.79;;;1.70;100.00
35291;BME280;21411;50.024;19.220;2022-12-10T08:40:33;97866.59;;;1.70;100.00
35291;BME280;21411;50.024;19.220;2022-12-10T08:42:59;97862.27;;;1.72;100.00
35291;BME280;21411;50.024;19.220;2022-12-10T08:45:24;97858.89;;;1.77;100.00
35291;BME280;21411;50.024;19.220;2022-12-10T08:47:51;97863.55;;;1.78;100.00
35291;BME280;21411;50.024;19.220;2022-12-10T08:50:17;97865.80;;;1.79;100.00
35291;BME280;21411;50.024;19.220;2022-12-10T08:52:43;97871.27;;;1.78;100.00
35291;BME280;21411;50.024;19.220;2022-12-10T08:55:09;97873.94;;;1.77;100.00
35291;BME280;21411;50.024;19.220;2022-12-10T08:57:36;97871.44;;;1.75;100.00
35291;BME280;21411;50.024;19.220;2022-12-10T09:00:03;97866.92;;;1.74;100.00
35291;BME280;21411;50.024;19.220;2022-12-10T09:02:29;97868.38;;;1.72;100.00
35291;BME280;21411;50.024;19.220;2022-12-10T09:04:56;97864.94;;;1.75;100.00
35291;BME280;21411;50.024;19.220;2022-12-10T09:07:22;97862.52;;;1.78;100.00
35291;BME280;21411;50.024;19.220;2022-12-10T09:09:47;97857.88;;;1.80;100.00
35291;BME280;21411;50.024;19.220;2022-12-10T09:12:14;97859.55;;;1.82;100.00
35291;BME280;21411;50.024;19.220;2022-12-10T09:14:40;97858.81;;;1.82;100.00
35291;BME280;21411;50.024;19.220;2022-12-10T09:17:08;97858.73;;;1.84;100.00
35291;BME280;21411;50.024;19.220;2022-12-10T09:19:34;97851.27;;;1.90;100.00
35291;BME280;21411;50.024;19.220;2022-12-10T09:22:00;97852.00;;;1.96;100.00
35291;BME280;21411;50.024;19.220;2022-12-10T09:24:26;97852.94;;;2.01;100.00
35291;BME280;21411;50.024;19.220;2022-12-10T09:26:52;97858.90;;;2.05;100.00
35291;BME280;21411;50.024;19.220;2022-12-10T09:29:18;97862.02;;;2.05;100.00
35291;BME280;21411;50.024;19.220;2022-12-10T09:31:44;97856.52;;;2.03;100.00
35291;BME280;21411;50.024;19.220;2022-12-10T09:34:10;97849.87;;;2.03;100.00
35291;BME280;21411;50.024;19.220;2022-12-10T09:36:36;97848.92;;;2.08;100.00
35291;BME280;21411;50.024;19.220;2022-12-10T09:39:02;97846.37;;;2.13;100.00
35291;BME280;21411;50.024;19.220;2022-12-10T09:42:03;97842.54;;;2.19;100.00
35291;BME280;21411;50.024;19.220;2022-12-10T09:47:10;97836.55;;;2.24;100.00
35291;BME280;21411;50.024;19.220;2022-12-10T09:50:02;97834.38;;;2.28;100.00
35291;BME280;21411;50.024;19.220;2022-12-10T09:52:37;97830.56;;;2.34;100.00
35291;BME280;21411;50.024;19.220;2022-12-10T09:55:10;97833.52;;;2.35;100.00
35291;BME280;21411;50.024;19.220;2022-12-10T09:57:45;97837.00;;;2.32;100.00
35291;BME280;21411;50.024;19.220;2022-12-10T10:02:58;97841.84;;;2.23;100.00
35291;BME280;21411;50.024;19.220;2022-12-10T10:05:29;97842.48;;;2.21;100.00
35291;BME280;21411;50.024;19.220;2022-12-10T10:07:59;97842.71;;;2.19;100.00
35291;BME280;21411;50.024;19.220;2022-12-10T10:10:28;97842.77;;;2.22;100.00
35291;BME280;21411;50.024;19.220;2022-12-10T10:13:00;97847.23;;;2.24;100.00
35291;BME280;21411;50.024;19.220;2022-12-10T10:15:32;97847.83;;;2.23;100.00
35291;BME280;21411;50.024;19.220;2022-12-10T10:18:11;97852.72;;;2.19;100.00
35291;BME280;21411;50.024;19.220;2022-12-10T10:20:39;97853.89;;;2.17;100.00
35291;BME280;21411;50.024;19.220;2022-12-10T10:23:06;97849.75;;;2.16;100.00
35291;BME280;21411;50.024;19.220;2022-12-10T10:25:33;97847.48;;;2.16;100.00
35291;BME280;21411;50.024;19.220;2022-12-10T10:27:59;97850.23;;;2.13;100.00
35291;BME280;21411;50.024;19.220;2022-12-10T10:30:25;97851.13;;;2.13;100.00
35291;BME280;21411;50.024;19.220;2022-12-10T10:32:54;97844.88;;;2.18;100.00
35291;BME280;21411;50.024;19.220;2022-12-10T10:35:29;97830.83;;;2.26;100.00
35291;BME280;21411;50.024;19.220;2022-12-10T10:37:58;97822.25;;;2.32;100.00
35291;BME280;21411;50.024;19.220;2022-12-10T10:40:29;97821.27;;;2.34;100.00
35291;BME280;21411;50.024;19.220;2022-12-10T10:42:57;97822.35;;;2.34;100.00
35291;BME280;21411;50.024;19.220;2022-12-10T10:48:06;97828.70;;;2.30;100.00
35291;BME280;21411;50.024;19.220;2022-12-10T10:50:43;97836.73;;;2.23;100.00
35291;BME280;21411;50.024;19.220;2022-12-10T10:53:28;97840.33;;;2.18;100.00
35291;BME280;21411;50.024;19.220;2022-12-10T10:55:57;97840.05;;;2.13;100.00
35291;BME280;21411;50.024;19.220;2022-12-10T10:58:25;97842.10;;;2.11;100.00
35291;BME280;21411;50.024;19.220;2022-12-10T11:01:00;97846.85;;;2.11;100.00
35291;BME280;21411;50.024;19.220;2022-12-10T11:03:30;97850.98;;;2.09;100.00
35291;BME280;21411;50.024;19.220;2022-12-10T11:05:58;97845.45;;;2.07;100.00
35291;BME280;21411;50.024;19.220;2022-12-10T11:08:28;97840.42;;;2.06;100.00
35291;BME280;21411;50.024;19.220;2022-12-10T11:11:00;97835.62;;;2.04;100.00
35291;BME280;21411;50.024;19.220;2022-12-10T11:13:32;97831.30;;;2.03;100.00
35291;BME280;21411;50.024;19.220;2022-12-10T11:16:16;97830.30;;;2.02;100.00
35291;BME280;21411;50.024;19.220;2022-12-10T11:18:56;97834.15;;;1.99;100.00
35291;BME280;21411;50.024;19.220;2022-12-10T11:21:33;97833.48;;;1.98;100.00
35291;BME280;21411;50.024;19.220;2022-12-10T11:24:05;97833.14;;;1.98;100.00
35291;BME280;21411;50.024;19.220;2022-12-10T11:26:40;97830.69;;;1.98;100.00
35291;BME280;21411;50.024;19.220;2022-12-10T11:37:43;97826.05;;;1.93;100.00
35291;BME280;21411;50.024;19.220;2022-12-10T11:40:31;97834.30;;;1.89;100.00
35291;BME280;21411;50.024;19.220;2022-12-10T11:45:47;97834.31;;;1.82;100.00
35291;BME280;21411;50.024;19.220;2022-12-10T11:48:34;97827.75;;;1.80;100.00
35291;BME280;21411;50.024;19.220;2022-12-10T11:51:31;97834.38;;;1.77;100.00
35291;BME280;21411;50.024;19.220;2022-12-10T11:54:20;97839.40;;;1.74;100.00
35291;BME280;21411;50.024;19.220;2022-12-10T11:57:03;97845.39;;;1.73;100.00
35291;BME280;21411;50.024;19.220;2022-12-10T11:59:57;97847.42;;;1.71;100.00
35291;BME280;21411;50.024;19.220;2022-12-10T12:13:31;97825.70;;;1.72;100.00
35291;BME280;21411;50.024;19.220;2022-12-10T12:16:04;97825.29;;;1.69;100.00
35291;BME280;21411;50.024;19.220;2022-12-10T12:18:40;97823.44;;;1.68;100.00
35291;BME280;21411;50.024;19.220;2022-12-10T12:21:10;97822.09;;;1.67;100.00
35291;BME280;21411;50.024;19.220;2022-12-10T12:23:56;97821.20;;;1.67;100.00
35291;BME280;21411;50.024;19.220;2022-12-10T12:26:35;97816.94;;;1.68;100.00
35291;BME280;21411;50.024;19.220;2022-12-10T12:31:54;97821.87;;;1.68;100.00
35291;BME280;21411;50.024;19.220;2022-12-10T12:34:27;97819.15;;;1.66;100.00
35291;BME280;21411;50.024;19.220;2022-12-10T12:36:55;97818.79;;;1.67;100.00
35291;BME280;21411;50.024;19.220;2022-12-10T12:39:33;97822.20;;;1.65;100.00
35291;BME280;21411;50.024;19.220;2022-12-10T12:44:56;97822.69;;;1.62;100.00
35291;BME280;21411;50.024;19.220;2022-12-10T12:47:36;97822.84;;;1.59;100.00
35291;BME280;21411;50.024;19.220;2022-12-10T12:53:01;97825.96;;;1.52;100.00
35291;BME280;21411;50.024;19.220;2022-12-10T12:55:37;97824.98;;;1.51;100.00
35291;BME280;21411;50.024;19.220;2022-12-10T12:58:21;97819.98;;;1.49;100.00
35291;BME280;21411;50.024;19.220;2022-12-10T13:00:50;97824.23;;;1.48;100.00
35291;BME280;21411;50.024;19.220;2022-12-10T13:05:48;97820.45;;;1.44;100.00
35291;BME280;21411;50.024;19.220;2022-12-10T13:13:39;97831.14;;;1.40;100.00
35291;BME280;21411;50.024;19.220;2022-12-10T13:24:19;97845.55;;;1.35;100.00
35291;BME280;21411;50.024;19.220;2022-12-10T13:27:14;97847.30;;;1.35;100.00
35291;BME280;21411;50.024;19.220;2022-12-10T13:40:24;97865.08;;;1.29;100.00
35291;BME280;21411;50.024;19.220;2022-12-10T13:47:03;97863.98;;;1.26;100.00
35291;BME280;21411;50.024;19.220;2022-12-10T13:49:28;97869.15;;;1.24;100.00
35291;BME280;21411;50.024;19.220;2022-12-10T13:52:04;97869.20;;;1.23;100.00
35291;BME280;21411;50.024;19.220;2022-12-10T14:00:20;97868.86;;;1.19;100.00
35291;BME280;21411;50.024;19.220;2022-12-10T14:03:06;97869.89;;;1.20;100.00
35291;BME280;21411;50.024;19.220;2022-12-10T14:08:30;97870.57;;;1.20;100.00
35291;BME280;21411;50.024;19.220;2022-12-10T14:10:57;97868.48;;;1.20;100.00
35291;BME280;21411;50.024;19.220;2022-12-10T14:13:33;97868.38;;;1.22;100.00
35291;BME280;21411;50.024;19.220;2022-12-10T14:16:02;97867.85;;;1.22;100.00
35291;BME280;21411;50.024;19.220;2022-12-10T14:18:28;97871.23;;;1.20;100.00
35291;BME280;21411;50.024;19.220;2022-12-10T14:20:56;97872.47;;;1.20;100.00
35291;BME280;21411;50.024;19.220;2022-12-10T14:23:29;97870.09;;;1.19;100.00
35291;BME280;21411;50.024;19.220;2022-12-10T14:26:14;97869.76;;;1.18;100.00
35291;BME280;21411;50.024;19.220;2022-12-10T14:28:44;97868.43;;;1.17;100.00
35291;BME280;21411;50.024;19.220;2022-12-10T14:31:17;97859.05;;;1.16;100.00
35291;BME280;21411;50.024;19.220;2022-12-10T14:33:46;97855.23;;;1.15;100.00
35291;BME280;21411;50.024;19.220;2022-12-10T14:36:16;97856.49;;;1.14;100.00
35291;BME280;21411;50.024;19.220;2022-12-10T14:38:45;97858.45;;;1.14;100.00
35291;BME280;21411;50.024;19.220;2022-12-10T14:41:17;97860.80;;;1.12;100.00